• Join FlightAware (Why Join?)
  • Login
  • US Flag 
06:26AM EST


 

Airport Tracker/Info


-or-


 

Live Flight TrackerFlight Track Log ✈ GJS3707 ✈ 17-Jul-2013 ✈ KBOI - KORD

Flight Track Log - Related Links

Times and Time Zones

All times are in EDT time to prevent confusion due to time zone crossing. See the GJS3707 flight status page for this flight to view local times or setup timezone preferences in your user account.

Time Position Orientation Groundspeed Altitude Reporting Facility
EDT Latitude Longitude Course Direction KTS MPH feet Rate Location/Type
05:29PM 43.5828 -116.2839 65° Northeast 193 222 4,500  Level Salt Lake Center
05:30PM 43.6056 -116.3600 292° West 206 237 6,600 1,500 Climbing Salt Lake Center
05:31PM 43.6542 -116.4206 318° Northwest 266 306 7,700 1,560 Climbing Salt Lake Center
05:32PM 43.6480 -115.5702 82° East  Level FlightAware Approximate
05:32PM 43.7017 -116.3239 56° Northeast 308 354 9,900  Level Salt Lake Center
05:33PM 43.6694 -115.4090 81° East  Level FlightAware Approximate
05:33PM 43.7086 -116.2094 85° East 312 359 11,600  Level Salt Lake Center
05:34PM 43.6954 -115.2473 65° Northeast  Level FlightAware Approximate
05:34PM 43.7236 -116.0664 82° East 332 382 13,300  Level Salt Lake Center
05:35PM 43.7386 -115.9344 81° East 358 412 14,800 1,680 Climbing Salt Lake Center
05:36PM 43.7536 -115.7756 82° East 373 429 16,800 1,680 Climbing Salt Lake Center
05:37PM 43.7619 -115.6378 85° East 376 433 18,300 1,500 Climbing Salt Lake Center
05:38PM 43.7722 -115.4725 85° East 386 444 20,000 1,440 Climbing Salt Lake Center
05:39PM 43.7825 -115.3269 84° East 396 456 21,300 1,380 Climbing Salt Lake Center
05:40PM 43.8028 -115.1531 81° East 410 472 22,900 1,380 Climbing Salt Lake Center
05:41PM 43.8258 -115.0042 78° East 414 476 24,200 1,380 Climbing Salt Lake Center
05:42PM 43.8481 -114.8281 80° East 417 480 25,800 1,200 Climbing Salt Lake Center
05:44PM 43.8728 -114.6767 77° East 422 486 26,800 960 Climbing Salt Lake Center
05:45PM 43.8847 -114.5194 84° East 428 493 27,800 960 Climbing Salt Lake Center
05:46PM 43.8950 -114.3325 86° East 436 502 28,800 720 Climbing Salt Lake Center
05:47PM 43.9031 -114.1686 86° East 444 511 29,300 480 Climbing Salt Lake Center
05:48PM 43.9131 -113.9706 86° East 462 532 29,900 600 Climbing Salt Lake Center
05:49PM 43.9386 -113.7869 79° East 476 548 30,600 600 Climbing Salt Lake Center
05:50PM 43.9642 -113.5961 79° East 484 557 31,200 480 Climbing Salt Lake Center
05:51PM 43.9878 -113.4172 80° East 486 559 31,600 480 Climbing Salt Lake Center
05:52PM 44.0083 -113.2050 82° East 494 568 32,200 480 Climbing Salt Lake Center
05:53PM 44.0103 -113.0222 89° East 498 573 32,700 480 Climbing Salt Lake Center
05:54PM 44.0169 -112.8072 87° East 498 573 33,300 480 Climbing Salt Lake Center
05:55PM 44.0228 -112.6225 87° East 500 575 33,800 420 Climbing Salt Lake Center
05:56PM 44.0253 -112.4367 89° East 502 578 34,200 480 Climbing Salt Lake Center
05:57PM 44.0281 -112.2283 89° East 502 578 34,800 540 Climbing Salt Lake Center
05:58PM 44.0333 -112.0078 88° East 500 575 35,400 480 Climbing Salt Lake Center
05:59PM 44.0367 -111.8125 89° East 505 581 35,900 480 Climbing Salt Lake Center
06:00PM 44.0397 -111.6181 89° East 505 581 36,400 480 Climbing Salt Lake Center
06:01PM 44.0425 -111.4136 89° East 502 578 36,900 240 Climbing Salt Lake Center
06:02PM 44.0444 -111.2319 89° East 501 577 37,000  Climbing Salt Lake Center
06:03PM 44.0469 -111.0353 89° East 507 583 37,000  Level Salt Lake Center
06:04PM 44.0492 -110.7956 89° East 515 593 37,000  Level Salt Lake Center
06:05PM 44.0503 -110.5939 89° East 520 598 37,000 -60 Level Salt Lake Center
06:06PM 44.0539 -110.4106 88° East 517 595 36,900  Descending Salt Lake Center
06:07PM 44.0539 -110.1703 90° East 516 594 37,000  Climbing Salt Lake Center
06:08PM 44.0536 -109.9667 90° East 524 603 37,000  Level Salt Lake Center
06:09PM 44.0539 -109.7683 90° East 518 596 37,000  Level Salt Lake Center
06:10PM 44.0533 -109.5686 90° East 517 595 37,000  Level Salt Lake Center
06:11PM 44.0519 -109.3650 90° East 509 586 37,000  Level Salt Lake Center
06:12PM 44.0503 -109.1689 91° East 507 583 37,000  Level Salt Lake Center
06:13PM 44.0494 -108.9714 90° East 511 588 37,000  Level Salt Lake Center
06:15PM 44.0386 -108.7775 94° East 510 587 37,000  Level Salt Lake Center
06:16PM 43.9992 -108.5486 103° East 510 587 37,000  Level Salt Lake Center
06:17PM 43.9783 -108.3569 99° East 508 585 37,000  Level Salt Lake Center
06:18PM 43.9839 -108.1608 88° East 512 589 37,000  Level Salt Lake Center
06:19PM 43.9864 -107.9656 89° East 511 588 37,000  Level Salt Lake Center
06:20PM 43.9900 -107.7708 88° East 511 588 37,000  Level Salt Lake Center
06:21PM 43.9939 -107.5356 89° East 513 590 37,000  Level Salt Lake Center
06:22PM 43.9969 -107.3392 89° East 513 590 37,000  Level Salt Lake Center
06:23PM 43.9989 -107.1433 89° East 512 589 37,000  Level Salt Lake Center
06:24PM 44.0014 -106.9858 89° East 510 587 37,000  Level Denver Center
06:25PM 44.0039 -106.7567 89° East 509 586 37,000  Level Denver Center
06:26PM 44.0053 -106.5689 89° East 509 586 37,000  Level Denver Center
06:27PM 44.0072 -106.3211 89° East 510 587 37,000  Level Salt Lake Center
06:28PM 44.0097 -106.1292 89° East 512 589 37,000  Level Salt Lake Center
06:29PM 44.0100 -105.9111 90° East 508 585 37,000  Level Salt Lake Center
06:30PM 44.0089 -105.7253 90° East 505 581 37,000  Level Denver Center
06:31PM 44.0097 -105.5056 90° East 507 583 37,000  Level Denver Center
06:32PM 44.0075 -105.3217 91° East 501 577 37,000  Level Denver Center
06:33PM 44.0061 -105.1044 90° East 502 578 37,000  Level Denver Center
06:34PM 44.0053 -104.9158 90° East 506 582 37,000  Level Denver Center
06:35PM 44.0033 -104.6989 91° East 504 580 37,000  Level Denver Center
06:36PM 44.0006 -104.5131 91° East 503 579 37,000  Level Denver Center
06:37PM 43.9983 -104.2969 91° East 502 578 37,000  Level Denver Center
06:38PM 43.9958 -104.1150 91° East 495 570 37,000  Level Denver Center
06:39PM 43.9925 -103.9008 91° East 496 571 37,000  Level Denver Center
06:40PM 43.9886 -103.7192 92° East 494 568 37,000  Level Denver Center
06:41PM 43.9858 -103.5061 91° East 493 567 37,000  Level Denver Center
06:43PM 43.9825 -103.3250 91° East 490 564 37,000  Level Denver Center
06:45PM 43.9725 -102.9306 92° East 493 567 37,000  Level Denver Center
06:46PM 43.9669 -102.7567 92° East 495 570 37,000 60 Level Denver Center
06:47PM 43.9597 -102.5269 92° East 496 571 37,200 300 Climbing Denver Center
06:48PM 43.9511 -102.3369 94° East 496 571 37,700 480 Climbing Denver Center
06:49PM 43.9431 -102.1506 93° East 489 563 38,300 480 Climbing Denver Center
06:50PM 43.9356 -101.9686 93° East 479 551 38,800 300 Climbing Denver Center
06:51PM 43.9297 -101.7906 93° East 471 542 39,000 60 Climbing Denver Center
06:52PM 43.9300 -101.6169 90° East 461 531 39,000  Level Denver Center
06:53PM 43.9222 -101.4339 93° East 475 547 39,000  Level Denver Center
06:54PM 43.9139 -101.2158 93° East 475 547 39,000  Level Denver Center
06:55PM 43.9064 -101.0331 93° East 477 549 39,000  Level Denver Center
06:56PM 43.8994 -100.8494 93° East 480 552 39,000  Level Denver Center
06:57PM 43.9000 -100.6328 90° East 483 556 39,000  Level Minneapolis Center
06:58PM 43.9619 -100.4783 61° Northeast 467 537 39,000  Level Minneapolis Center
06:59PM 44.0489 -100.3458 48° Northeast 463 533 39,000  Level Minneapolis Center
07:00PM 44.1358 -100.2147 47° Northeast 463 533 39,000  Level Minneapolis Center
07:01PM 44.2397 -100.0544 48° Northeast 465 535 39,000  Level Minneapolis Center
07:02PM 44.3256 -99.9219 48° Northeast 464 534 39,000  Level Minneapolis Center
07:03PM 44.3875 -99.7636 61° Northeast 473 544 39,000  Level Minneapolis Center
07:04PM 44.4014 -99.5817 84° East 476 548 39,000  Level Minneapolis Center
07:05PM 44.3831 -99.3975 98° East 481 554 39,000  Level Minneapolis Center
07:06PM 44.3567 -99.1781 99° East 480 552 39,000  Level Minneapolis Center
07:07PM 44.3342 -98.9950 100° East 479 551 39,000  Level Minneapolis Center
07:09PM 44.3114 -98.8117 100° East 480 552 39,000  Level Minneapolis Center
07:10PM 44.2889 -98.6292 100° East 479 551 39,000  Level Minneapolis Center
07:11PM 44.2656 -98.4461 100° East 479 551 39,000  Level Minneapolis Center
07:12PM 44.2383 -98.2358 100° East 480 552 39,000  Level Minneapolis Center
07:13PM 44.2150 -98.0539 100° East 478 550 39,000  Level Minneapolis Center
07:14PM 44.1903 -97.8708 101° East 481 554 39,000  Level Minneapolis Center
07:15PM 44.1656 -97.6886 101° East 481 554 39,000  Level Minneapolis Center
07:16PM 44.1411 -97.5067 101° East 480 552 39,000  Level Minneapolis Center
07:17PM 44.1106 -97.2883 101° East 481 554 39,000  Level Minneapolis Center
07:18PM 44.0856 -97.1058 101° East 482 555 39,000  Level Minneapolis Center
07:19PM 44.0600 -96.9236 101° East 483 556 39,000  Level Minneapolis Center
07:20PM 44.0342 -96.7425 101° East 481 554 39,000  Level Minneapolis Center
07:21PM 44.0086 -96.5619 101° East 482 555 39,000  Level Minneapolis Center
07:22PM 43.9814 -96.3819 102° East 483 556 39,000  Level Minneapolis Center
07:23PM 43.9497 -96.1656 101° East 486 559 39,000  Level Minneapolis Center
07:24PM 43.9250 -95.9892 101° East 477 549 39,000  Level Minneapolis Center
07:25PM 43.8933 -95.7789 102° East 471 542 39,000  Level Minneapolis Center
07:27PM 43.8564 -95.5356 102° East 466 536 39,000  Level Minneapolis Center
07:28PM 43.8300 -95.3619 102° East 464 534 39,000  Level Minneapolis Center
07:29PM 43.8008 -95.1878 103° East 467 537 39,000  Level Minneapolis Center
07:30PM 43.7747 -95.0156 102° East 462 532 39,000  Level Minneapolis Center
07:31PM 43.7453 -94.8428 103° East 463 533 39,000  Level Minneapolis Center
07:32PM 43.7117 -94.6367 103° East 460 529 39,000  Level Minneapolis Center
07:33PM 43.6844 -94.4644 102° East 459 528 39,000  Level Minneapolis Center
07:34PM 43.6556 -94.2947 103° East 457 526 39,000  Level Minneapolis Center
07:35PM 43.6258 -94.1178 103° East 456 525 39,000  Level Minneapolis Center
07:36PM 43.5983 -93.9483 103° East 455 524 39,000  Level Minneapolis Center
07:37PM 43.5689 -93.7797 103° East 453 521 39,000  Level Minneapolis Center
07:38PM 43.5389 -93.6089 104° East 454 522 39,000  Level Minneapolis Center
07:39PM 43.5111 -93.4422 103° East 452 520 39,000  Level Minneapolis Center
07:40PM 43.4753 -93.2422 104° East 452 520 39,000  Level Minneapolis Center
07:41PM 43.4456 -93.0761 104° East 451 519 39,000  Level Minneapolis Center
07:42PM 43.4161 -92.9092 104° East 452 520 39,000 -300 Level Minneapolis Center
07:43PM 43.3858 -92.7425 104° East 453 521 38,400 -840 Descending Minneapolis Center
07:44PM 43.3611 -92.6050 104° East 461 531 37,400 -1,500 Descending Minneapolis Center
07:45PM 43.3153 -92.3583 104° East 477 549 35,400 -1,680 Descending Minneapolis Center
07:46PM 43.2833 -92.1797 104° East 483 556 34,000 -1,500 Descending Minneapolis Center
07:47PM 43.2511 -92.0025 104° East 482 555 32,400 -1,260 Descending Minneapolis Center
07:48PM 43.2186 -91.8250 104° East 483 556 31,500 -720 Descending Minneapolis Center
07:49PM 43.1919 -91.6836 104° East 481 554 31,000 -300 Descending Minneapolis Center
07:50PM 43.1147 -91.4478 114° Southeast 486 559 31,000 -240 Level Minneapolis Center
07:51PM 43.0689 -91.3181 116° Southeast 481 554 30,600 -480 Descending Chicago Center
07:52PM 42.9650 -91.2197 145° Southeast 472 543 30,100 -300 Descending Chicago Center
07:53PM 42.8497 -91.1544 157° South 452 520 30,000 -60 Descending Chicago Center
07:54PM 42.7192 -91.0600 152° Southeast 462 532 30,000 -60 Level Chicago Center
07:55PM 42.6767 -90.9064 111° Southeast 451 519 29,900 -540 Descending Chicago Center
07:56PM 42.6536 -90.7397 101° East 455 524 29,000 -900 Descending Chicago Center
07:57PM 42.6297 -90.5664 101° East 470 541 28,100 -900 Descending Chicago Center
07:58PM 42.6042 -90.3894 101° East 484 557 27,200 -1,020 Descending Chicago Center
07:59PM 42.5758 -90.1778 100° East 481 554 26,100 -1,020 Descending Chicago Center
08:01PM 42.5511 -90.0072 101° East 469 540 25,200 -900 Descending Chicago Center
08:02PM 42.5264 -89.8386 101° East 464 534 24,300 -840 Descending Chicago Center
08:03PM 42.5169 -89.6653 94° East 461 531 23,500 -1,080 Descending Chicago Center
08:04PM 42.5128 -89.4653 92° East 456 525 22,100 -1,620 Descending Chicago Center
08:05PM 42.5103 -89.3011 91° East 438 504 20,200 -1,980 Descending Chicago Center
08:06PM 42.5078 -89.1417 91° East 425 489 18,100 -2,160 Descending Chicago Center
08:07PM 42.5072 -88.9858 90° East 418 481 15,800 -2,400 Descending Chicago Center
08:08PM 42.4781 -88.8417 105° East 396 456 13,100 -2,220 Descending Chicago Center
08:09PM 42.4306 -88.6839 112° Southeast 386 444 11,300 -1,320 Descending Chicago Center
08:10PM 42.3914 -88.5539 112° Southeast 376 433 10,400 -660 Descending Chicago Center
08:11PM 42.3539 -88.4297 112° Southeast 361 415 10,000 -240 Descending Chicago Center
08:12PM 42.3019 -88.3253 124° Southeast 361 415 10,000  Level Chicago Center
08:13PM 42.2261 -88.1997 129° Southeast 360 414 10,000 -300 Level Chicago Center
08:14PM 42.1644 -88.1103 133° Southeast 329 379 9,400 -1,080 Descending Chicago Center
08:15PM 42.1022 -88.0389 140° Southeast 299 344 7,800 -1,200 Descending Chicago Center
08:16PM 42.0928 -87.9333 97° East 294 338 7,000 -480 Descending Chicago Center
08:17PM 42.0908 -87.8292 91° East 283 326 6,900 -1,020 Descending Chicago Center
08:18PM 42.0911 -87.7247 90° East 240 276 4,900 -1,800 Descending Chicago Center
08:19PM 42.0408 -87.7106 168° South 232 267 3,200 -1,320 Descending Chicago Center
08:20PM 42.0108 -87.7672 235° Southwest 204 235 2,200 -1,020 Descending Chicago Center